sensor_id;sensor_type;location;lat;lon;timestamp;pressure;altitude;pressure_sealevel;temperature;humidity
33163;BME280;29282;45.656;11.302;2024-02-26T00:02:15;97585.38;;;20.13;41.76
33163;BME280;29282;45.656;11.302;2024-02-26T00:04:41;97581.03;;;20.12;41.79
33163;BME280;29282;45.656;11.302;2024-02-26T00:07:06;97574.38;;;20.13;41.64
33163;BME280;29282;45.656;11.302;2024-02-26T00:09:32;97578.66;;;20.10;41.13
33163;BME280;29282;45.656;11.302;2024-02-26T00:12:01;97570.41;;;20.10;41.12
33163;BME280;29282;45.656;11.302;2024-02-26T00:14:26;97570.75;;;20.09;41.47
33163;BME280;29282;45.656;11.302;2024-02-26T00:16:52;97570.41;;;20.10;41.63
33163;BME280;29282;45.656;11.302;2024-02-26T00:19:17;97556.22;;;20.08;41.43
33163;BME280;29282;45.656;11.302;2024-02-26T00:21:43;97560.13;;;20.07;41.16
33163;BME280;29282;45.656;11.302;2024-02-26T00:24:08;97556.22;;;20.08;41.47
33163;BME280;29282;45.656;11.302;2024-02-26T00:26:34;97551.44;;;20.05;40.99
33163;BME280;29282;45.656;11.302;2024-02-26T00:28:59;97558.53;;;20.06;41.49
33163;BME280;29282;45.656;11.302;2024-02-26T00:31:25;97547.91;;;20.05;41.18
33163;BME280;29282;45.656;11.302;2024-02-26T00:33:50;97554.19;;;20.05;41.20
33163;BME280;29282;45.656;11.302;2024-02-26T00:36:15;97538.84;;;20.04;41.18
33163;BME280;29282;45.656;11.302;2024-02-26T00:38:41;97538.84;;;20.04;40.93
33163;BME280;29282;45.656;11.302;2024-02-26T00:41:08;97538.06;;;20.04;41.46
33163;BME280;29282;45.656;11.302;2024-02-26T00:43:33;97529.38;;;20.02;41.02
33163;BME280;29282;45.656;11.302;2024-02-26T00:45:59;97525.03;;;20.01;41.04
33163;BME280;29282;45.656;11.302;2024-02-26T00:48:24;97528.59;;;20.01;40.88
33163;BME280;29282;45.656;11.302;2024-02-26T00:50:51;97524.25;;;20.00;40.82
33163;BME280;29282;45.656;11.302;2024-02-26T00:53:17;97527.78;;;20.01;41.03
33163;BME280;29282;45.656;11.302;2024-02-26T00:55:42;97525.84;;;20.01;41.08
33163;BME280;29282;45.656;11.302;2024-02-26T00:58:09;97515.19;;;20.00;41.13
33163;BME280;29282;45.656;11.302;2024-02-26T01:00:37;97516.34;;;19.99;40.88
33163;BME280;29282;45.656;11.302;2024-02-26T01:03:03;97515.19;;;20.00;40.71
33163;BME280;29282;45.656;11.302;2024-02-26T01:05:29;97503.41;;;19.99;40.53
33163;BME280;29282;45.656;11.302;2024-02-26T01:07:55;97514.41;;;19.99;40.49
33163;BME280;29282;45.656;11.302;2024-02-26T01:10:20;97501.03;;;19.98;40.52
33163;BME280;29282;45.656;11.302;2024-02-26T01:12:46;97492.34;;;19.95;40.56
33163;BME280;29282;45.656;11.302;2024-02-26T01:15:12;97489.59;;;19.95;40.76
33163;BME280;29282;45.656;11.302;2024-02-26T01:17:38;97493.50;;;19.94;40.54
33163;BME280;29282;45.656;11.302;2024-02-26T01:20:04;97491.97;;;19.97;40.70
33163;BME280;29282;45.656;11.302;2024-02-26T01:22:30;97488.78;;;19.95;40.66
33163;BME280;29282;45.656;11.302;2024-02-26T01:24:55;97484.47;;;19.94;40.23
33163;BME280;29282;45.656;11.302;2024-02-26T01:27:22;97482.84;;;19.93;40.40
33163;BME280;29282;45.656;11.302;2024-02-26T01:29:52;97480.09;;;19.93;41.04
33163;BME280;29282;45.656;11.302;2024-02-26T01:32:17;97475.78;;;19.92;40.57
33163;BME280;29282;45.656;11.302;2024-02-26T01:34:43;97471.44;;;19.91;40.80
33163;BME280;29282;45.656;11.302;2024-02-26T01:37:08;97472.22;;;19.91;40.15
33163;BME280;29282;45.656;11.302;2024-02-26T01:39:34;97467.09;;;19.90;40.67
33163;BME280;29282;45.656;11.302;2024-02-26T01:41:59;97471.00;;;19.89;41.09
33163;BME280;29282;45.656;11.302;2024-02-26T01:44:26;97471.78;;;19.89;40.61
33163;BME280;29282;45.656;11.302;2024-02-26T01:46:52;97467.09;;;19.90;40.02
33163;BME280;29282;45.656;11.302;2024-02-26T01:49:21;97472.16;;;19.88;39.98
33163;BME280;29282;45.656;11.302;2024-02-26T01:51:47;97456.84;;;19.87;40.82
33163;BME280;29282;45.656;11.302;2024-02-26T01:54:12;97456.03;;;19.86;40.69
33163;BME280;29282;45.656;11.302;2024-02-26T01:56:39;97447.78;;;19.86;40.81
33163;BME280;29282;45.656;11.302;2024-02-26T01:59:06;97452.47;;;19.86;40.40
33163;BME280;29282;45.656;11.302;2024-02-26T02:01:34;97444.22;;;19.86;40.25
33163;BME280;29282;45.656;11.302;2024-02-26T02:04:00;97439.91;;;19.85;40.50
33163;BME280;29282;45.656;11.302;2024-02-26T02:06:28;97440.25;;;19.83;40.32
33163;BME280;29282;45.656;11.302;2024-02-26T02:08:57;97430.88;;;19.84;40.00
33163;BME280;29282;45.656;11.302;2024-02-26T02:11:22;97431.66;;;19.85;40.24
33163;BME280;29282;45.656;11.302;2024-02-26T02:13:48;97420.22;;;19.83;40.01
33163;BME280;29282;45.656;11.302;2024-02-26T02:16:13;97413.16;;;19.82;39.94
33163;BME280;29282;45.656;11.302;2024-02-26T02:18:39;97406.06;;;19.81;40.55
33163;BME280;29282;45.656;11.302;2024-02-26T02:21:05;97416.56;;;19.75;39.82
33163;BME280;29282;45.656;11.302;2024-02-26T02:23:30;97407.66;;;19.62;40.96
33163;BME280;29282;45.656;11.302;2024-02-26T02:25:56;97402.75;;;19.52;41.70
33163;BME280;29282;45.656;11.302;2024-02-26T02:28:23;97396.31;;;19.44;42.38
33163;BME280;29282;45.656;11.302;2024-02-26T02:30:50;97393.13;;;19.42;43.03
33163;BME280;29282;45.656;11.302;2024-02-26T02:33:16;97393.06;;;19.39;43.48
33163;BME280;29282;45.656;11.302;2024-02-26T02:35:41;97391.47;;;19.38;43.89
33163;BME280;29282;45.656;11.302;2024-02-26T02:38:07;97399.34;;;19.39;44.15
33163;BME280;29282;45.656;11.302;2024-02-26T02:40:32;97400.97;;;19.40;44.63
33163;BME280;29282;45.656;11.302;2024-02-26T02:42:58;97396.25;;;19.41;44.66
33163;BME280;29282;45.656;11.302;2024-02-26T02:45:24;97389.59;;;19.42;44.81
33163;BME280;29282;45.656;11.302;2024-02-26T02:47:49;97389.59;;;19.42;44.87
33163;BME280;29282;45.656;11.302;2024-02-26T02:50:15;97379.78;;;19.41;45.11
33163;BME280;29282;45.656;11.302;2024-02-26T02:52:40;97380.56;;;19.41;45.02
33163;BME280;29282;45.656;11.302;2024-02-26T02:55:09;97379.00;;;19.40;45.16
33163;BME280;29282;45.656;11.302;2024-02-26T02:57:34;97378.53;;;19.38;45.30
33163;BME280;29282;45.656;11.302;2024-02-26T03:00:09;97375.78;;;19.38;45.29
33163;BME280;29282;45.656;11.302;2024-02-26T03:02:34;97368.34;;;19.39;45.35
33163;BME280;29282;45.656;11.302;2024-02-26T03:05:03;97371.47;;;19.37;45.36
33163;BME280;29282;45.656;11.302;2024-02-26T03:07:29;97373.41;;;19.37;45.42
33163;BME280;29282;45.656;11.302;2024-02-26T03:09:55;97366.31;;;19.36;45.37
33163;BME280;29282;45.656;11.302;2024-02-26T03:12:20;97370.22;;;19.35;45.42
33163;BME280;29282;45.656;11.302;2024-02-26T03:14:46;97373.41;;;19.37;45.52
33163;BME280;29282;45.656;11.302;2024-02-26T03:17:12;97365.09;;;19.33;45.36
33163;BME280;29282;45.656;11.302;2024-02-26T03:19:37;97366.25;;;19.32;45.59
33163;BME280;29282;45.656;11.302;2024-02-26T03:22:03;97368.22;;;19.32;45.60
33163;BME280;29282;45.656;11.302;2024-02-26T03:24:28;97363.06;;;19.30;45.61
33163;BME280;29282;45.656;11.302;2024-02-26T03:26:54;97367.41;;;19.31;45.39
33163;BME280;29282;45.656;11.302;2024-02-26T03:29:19;97367.75;;;19.30;45.63
33163;BME280;29282;45.656;11.302;2024-02-26T03:31:45;97362.28;;;19.30;45.64
33163;BME280;29282;45.656;11.302;2024-02-26T03:34:10;97366.19;;;19.29;45.63
33163;BME280;29282;45.656;11.302;2024-02-26T03:36:40;97370.09;;;19.28;45.66
33163;BME280;29282;45.656;11.302;2024-02-26T03:41:45;97366.91;;;19.25;45.78
33163;BME280;29282;45.656;11.302;2024-02-26T03:44:10;97361.41;;;19.25;45.79
33163;BME280;29282;45.656;11.302;2024-02-26T03:46:35;97358.22;;;19.23;45.73
33163;BME280;29282;45.656;11.302;2024-02-26T03:49:01;97361.78;;;19.24;45.83
33163;BME280;29282;45.656;11.302;2024-02-26T03:51:26;97359.03;;;19.24;45.88
33163;BME280;29282;45.656;11.302;2024-02-26T03:53:57;97357.03;;;19.21;45.97
33163;BME280;29282;45.656;11.302;2024-02-26T03:56:23;97364.09;;;19.22;45.99
33163;BME280;29282;45.656;11.302;2024-02-26T03:58:48;97360.13;;;19.19;45.98
33163;BME280;29282;45.656;11.302;2024-02-26T04:01:14;97364.47;;;19.20;45.92
33163;BME280;29282;45.656;11.302;2024-02-26T04:03:39;97358.16;;;19.20;46.00
33163;BME280;29282;45.656;11.302;2024-02-26T04:06:08;97354.22;;;19.17;45.96
33163;BME280;29282;45.656;11.302;2024-02-26T04:08:34;97358.53;;;19.18;45.96
33163;BME280;29282;45.656;11.302;2024-02-26T04:10:59;97358.53;;;19.18;45.98
33163;BME280;29282;45.656;11.302;2024-02-26T04:13:25;97354.22;;;19.17;45.97
33163;BME280;29282;45.656;11.302;2024-02-26T04:15:50;97354.22;;;19.17;46.05
33163;BME280;29282;45.656;11.302;2024-02-26T04:18:16;97351.81;;;19.16;46.00
33163;BME280;29282;45.656;11.302;2024-02-26T04:20:41;97360.69;;;19.09;46.30
33163;BME280;29282;45.656;11.302;2024-02-26T04:23:07;97361.72;;;19.01;46.43
33163;BME280;29282;45.656;11.302;2024-02-26T04:25:33;97360.03;;;18.96;46.58
33163;BME280;29282;45.656;11.302;2024-02-26T04:27:58;97359.63;;;18.94;46.55
33163;BME280;29282;45.656;11.302;2024-02-26T04:30:24;97365.47;;;18.93;46.50
33163;BME280;29282;45.656;11.302;2024-02-26T04:32:49;97359.56;;;18.91;46.55
33163;BME280;29282;45.656;11.302;2024-02-26T04:35:15;97364.59;;;18.89;46.64
33163;BME280;29282;45.656;11.302;2024-02-26T04:37:40;97362.63;;;18.89;46.67
33163;BME280;29282;45.656;11.302;2024-02-26T04:40:06;97363.81;;;18.88;46.58
33163;BME280;29282;45.656;11.302;2024-02-26T04:42:33;97361.41;;;18.87;46.65
33163;BME280;29282;45.656;11.302;2024-02-26T04:44:58;97348.84;;;18.86;46.67
33163;BME280;29282;45.656;11.302;2024-02-26T04:47:24;97348.06;;;18.85;46.76
33163;BME280;29282;45.656;11.302;2024-02-26T04:49:50;97357.44;;;18.84;46.59
33163;BME280;29282;45.656;11.302;2024-02-26T04:52:15;97355.84;;;18.83;46.56
33163;BME280;29282;45.656;11.302;2024-02-26T04:54:44;97357.34;;;18.81;46.57
33163;BME280;29282;45.656;11.302;2024-02-26T04:57:09;97364.78;;;18.80;46.48
33163;BME280;29282;45.656;11.302;2024-02-26T04:59:35;97354.59;;;18.81;46.63
33163;BME280;29282;45.656;11.302;2024-02-26T05:02:00;97362.41;;;18.78;46.76
33163;BME280;29282;45.656;11.302;2024-02-26T05:04:26;97361.63;;;18.78;46.59
33163;BME280;29282;45.656;11.302;2024-02-26T05:06:51;97372.59;;;18.78;46.56
33163;BME280;29282;45.656;11.302;2024-02-26T05:09:18;97370.19;;;18.76;46.66
33163;BME280;29282;45.656;11.302;2024-02-26T05:11:44;97372.16;;;18.76;46.83
33163;BME280;29282;45.656;11.302;2024-02-26T05:14:09;97375.28;;;18.74;46.83
33163;BME280;29282;45.656;11.302;2024-02-26T05:16:35;97370.56;;;18.75;46.82
33163;BME280;29282;45.656;11.302;2024-02-26T05:19:01;97368.97;;;18.74;46.82
33163;BME280;29282;45.656;11.302;2024-02-26T05:21:26;97370.13;;;18.73;46.83
33163;BME280;29282;45.656;11.302;2024-02-26T05:23:52;97365.81;;;18.72;46.78
33163;BME280;29282;45.656;11.302;2024-02-26T05:26:23;97367.72;;;18.71;46.71
33163;BME280;29282;45.656;11.302;2024-02-26T05:28:49;97372.41;;;18.71;46.82
33163;BME280;29282;45.656;11.302;2024-02-26T05:31:15;97370.81;;;18.70;46.91
33163;BME280;29282;45.656;11.302;2024-02-26T05:33:41;97366.47;;;18.69;46.78
33163;BME280;29282;45.656;11.302;2024-02-26T05:36:07;97372.75;;;18.69;47.02
33163;BME280;29282;45.656;11.302;2024-02-26T05:38:32;97365.69;;;18.68;46.96
33163;BME280;29282;45.656;11.302;2024-02-26T05:41:01;97357.00;;;18.66;46.80
33163;BME280;29282;45.656;11.302;2024-02-26T05:43:26;97360.56;;;18.67;47.03
33163;BME280;29282;45.656;11.302;2024-02-26T05:45:52;97368.00;;;18.66;47.02
33163;BME280;29282;45.656;11.302;2024-02-26T05:48:21;97371.91;;;18.65;47.01
33163;BME280;29282;45.656;11.302;2024-02-26T05:50:47;97381.28;;;18.64;46.92
33163;BME280;29282;45.656;11.302;2024-02-26T05:53:15;97390.66;;;18.63;47.04
33163;BME280;29282;45.656;11.302;2024-02-26T05:55:40;97390.66;;;18.63;47.04
33163;BME280;29282;45.656;11.302;2024-02-26T05:58:06;97393.41;;;18.63;46.96
33163;BME280;29282;45.656;11.302;2024-02-26T06:00:31;97402.41;;;18.64;46.81
33163;BME280;29282;45.656;11.302;2024-02-26T06:02:57;97409.59;;;18.68;46.87
33163;BME280;29282;45.656;11.302;2024-02-26T06:05:23;97405.44;;;18.74;46.70
33163;BME280;29282;45.656;11.302;2024-02-26T06:07:48;97400.47;;;18.80;46.84
33163;BME280;29282;45.656;11.302;2024-02-26T06:10:14;97401.84;;;18.90;46.43
33163;BME280;29282;45.656;11.302;2024-02-26T06:12:40;97401.81;;;19.06;46.14
33163;BME280;29282;45.656;11.302;2024-02-26T06:15:06;97399.78;;;19.22;45.82
33163;BME280;29282;45.656;11.302;2024-02-26T06:17:31;97407.53;;;19.36;45.39
33163;BME280;29282;45.656;11.302;2024-02-26T06:20:00;97412.03;;;19.44;45.28
33163;BME280;29282;45.656;11.302;2024-02-26T06:22:26;97423.41;;;19.46;45.28
33163;BME280;29282;45.656;11.302;2024-02-26T06:24:52;97419.59;;;19.51;45.29
33163;BME280;29282;45.656;11.302;2024-02-26T06:27:17;97411.78;;;19.53;45.18
33163;BME280;29282;45.656;11.302;2024-02-26T06:29:43;97411.44;;;19.54;45.29
33163;BME280;29282;45.656;11.302;2024-02-26T06:32:09;97409.47;;;19.55;45.30
33163;BME280;29282;45.656;11.302;2024-02-26T06:34:34;97407.44;;;19.52;45.48
33163;BME280;29282;45.656;11.302;2024-02-26T06:37:00;97423.13;;;19.51;45.39
33163;BME280;29282;45.656;11.302;2024-02-26T06:39:25;97425.88;;;19.51;45.45
33163;BME280;29282;45.656;11.302;2024-02-26T06:41:53;97423.13;;;19.51;45.58
33163;BME280;29282;45.656;11.302;2024-02-26T06:44:25;97427.84;;;19.51;45.72
33163;BME280;29282;45.656;11.302;2024-02-26T06:46:51;97426.22;;;19.49;45.67
33163;BME280;29282;45.656;11.302;2024-02-26T06:49:17;97436.44;;;19.49;45.64
33163;BME280;29282;45.656;11.302;2024-02-26T06:51:42;97436.03;;;19.47;45.76
33163;BME280;29282;45.656;11.302;2024-02-26T06:54:08;97431.72;;;19.49;45.63
33163;BME280;29282;45.656;11.302;2024-02-26T06:56:36;97433.28;;;19.47;45.74
33163;BME280;29282;45.656;11.302;2024-02-26T06:59:01;97439.31;;;19.56;45.64
33163;BME280;29282;45.656;11.302;2024-02-26T07:01:27;97430.97;;;19.68;45.25
33163;BME280;29282;45.656;11.302;2024-02-26T07:03:52;97437.09;;;19.81;45.06
33163;BME280;29282;45.656;11.302;2024-02-26T07:06:18;97442.00;;;19.91;44.88
33163;BME280;29282;45.656;11.302;2024-02-26T07:08:44;97440.53;;;19.98;44.83
33163;BME280;29282;45.656;11.302;2024-02-26T07:11:10;97441.38;;;20.02;44.67
33163;BME280;29282;45.656;11.302;2024-02-26T07:13:36;97436.38;;;20.07;44.66
33163;BME280;29282;45.656;11.302;2024-02-26T07:16:02;97437.19;;;20.08;44.59
33163;BME280;29282;45.656;11.302;2024-02-26T07:18:28;97437.25;;;20.11;44.61
33163;BME280;29282;45.656;11.302;2024-02-26T07:20:56;97444.75;;;20.14;44.63
33163;BME280;29282;45.656;11.302;2024-02-26T07:23:25;97438.81;;;20.12;44.55
33163;BME280;29282;45.656;11.302;2024-02-26T07:25:50;97438.03;;;20.12;44.60
33163;BME280;29282;45.656;11.302;2024-02-26T07:28:18;97441.56;;;20.12;44.84
33163;BME280;29282;45.656;11.302;2024-02-26T07:30:43;97436.06;;;20.12;44.81
33163;BME280;29282;45.656;11.302;2024-02-26T07:33:09;97447.06;;;20.12;44.89
33163;BME280;29282;45.656;11.302;2024-02-26T07:35:34;97446.72;;;20.14;44.87
33163;BME280;29282;45.656;11.302;2024-02-26T07:38:01;97447.84;;;20.13;44.80
33163;BME280;29282;45.656;11.302;2024-02-26T07:40:27;97450.81;;;20.24;44.62
33163;BME280;29282;45.656;11.302;2024-02-26T07:42:52;97458.03;;;20.32;45.34
33163;BME280;29282;45.656;11.302;2024-02-26T07:45:18;97463.09;;;20.30;45.24
33163;BME280;29282;45.656;11.302;2024-02-26T07:47:46;97458.75;;;20.29;45.42
33163;BME280;29282;45.656;11.302;2024-02-26T07:50:12;97461.44;;;20.25;45.42
33163;BME280;29282;45.656;11.302;2024-02-26T07:52:38;97459.88;;;20.24;45.63
33163;BME280;29282;45.656;11.302;2024-02-26T07:55:04;97458.28;;;20.23;45.80
33163;BME280;29282;45.656;11.302;2024-02-26T07:57:30;97462.16;;;20.22;45.89
33163;BME280;29282;45.656;11.302;2024-02-26T07:59:55;97460.94;;;20.19;46.20
33163;BME280;29282;45.656;11.302;2024-02-26T08:02:21;97462.13;;;20.18;46.24
33163;BME280;29282;45.656;11.302;2024-02-26T08:04:47;97470.00;;;20.20;46.35
33163;BME280;29282;45.656;11.302;2024-02-26T08:07:13;97462.13;;;20.18;46.64
33163;BME280;29282;45.656;11.302;2024-02-26T08:09:38;97462.13;;;20.18;46.99
33163;BME280;29282;45.656;11.302;2024-02-26T08:12:04;97457.34;;;20.15;46.66
33163;BME280;29282;45.656;11.302;2024-02-26T08:14:30;97457.34;;;20.15;47.23
33163;BME280;29282;45.656;11.302;2024-02-26T08:16:58;97462.84;;;20.15;46.89
33163;BME280;29282;45.656;11.302;2024-02-26T08:19:24;97461.25;;;20.14;46.95
33163;BME280;29282;45.656;11.302;2024-02-26T08:21:49;97460.81;;;20.12;47.04
33163;BME280;29282;45.656;11.302;2024-02-26T08:24:15;97461.25;;;20.14;47.41
33163;BME280;29282;45.656;11.302;2024-02-26T08:26:40;97468.28;;;20.12;47.16
33163;BME280;29282;45.656;11.302;2024-02-26T08:29:06;97464.75;;;20.11;47.47
33163;BME280;29282;45.656;11.302;2024-02-26T08:31:31;97465.91;;;20.10;47.38
33163;BME280;29282;45.656;11.302;2024-02-26T08:33:57;97477.31;;;20.12;47.62
33163;BME280;29282;45.656;11.302;2024-02-26T08:36:23;97470.63;;;20.10;47.60
33163;BME280;29282;45.656;11.302;2024-02-26T08:38:49;97470.53;;;20.06;47.49
33163;BME280;29282;45.656;11.302;2024-02-26T08:41:14;97469.81;;;20.09;47.74
33163;BME280;29282;45.656;11.302;2024-02-26T08:43:40;97472.06;;;20.04;47.51
33163;BME280;29282;45.656;11.302;2024-02-26T08:46:08;97475.91;;;19.99;47.32
33163;BME280;29282;45.656;11.302;2024-02-26T08:48:35;97477.06;;;19.98;47.37
33163;BME280;29282;45.656;11.302;2024-02-26T08:51:07;97476.28;;;19.98;47.12
33163;BME280;29282;45.656;11.302;2024-02-26T08:53:33;97472.81;;;20.01;47.33
33163;BME280;29282;45.656;11.302;2024-02-26T08:55:59;97470.41;;;19.99;47.46
33163;BME280;29282;45.656;11.302;2024-02-26T08:58:24;97471.19;;;20.00;47.54
33163;BME280;29282;45.656;11.302;2024-02-26T09:00:50;97472.75;;;19.97;47.59
33163;BME280;29282;45.656;11.302;2024-02-26T09:03:15;97476.28;;;19.98;47.70
33163;BME280;29282;45.656;11.302;2024-02-26T09:05:41;97475.03;;;19.95;47.50
33163;BME280;29282;45.656;11.302;2024-02-26T09:08:07;97478.59;;;19.95;47.75
33163;BME280;29282;45.656;11.302;2024-02-26T09:10:32;97475.41;;;19.93;47.71
33163;BME280;29282;45.656;11.302;2024-02-26T09:12:58;97476.56;;;19.92;47.67
33163;BME280;29282;45.656;11.302;2024-02-26T09:15:24;97482.00;;;19.89;47.69
33163;BME280;29282;45.656;11.302;2024-02-26T09:17:49;97480.03;;;19.89;47.75
33163;BME280;29282;45.656;11.302;2024-02-26T09:20:16;97477.59;;;19.84;47.50
33163;BME280;29282;45.656;11.302;2024-02-26T09:22:46;97485.78;;;19.81;47.61
33163;BME280;29282;45.656;11.302;2024-02-26T09:25:11;97480.16;;;19.74;46.90
33163;BME280;29282;45.656;11.302;2024-02-26T09:27:37;97476.34;;;19.62;46.12
33163;BME280;29282;45.656;11.302;2024-02-26T09:30:02;97482.56;;;19.59;46.58
33163;BME280;29282;45.656;11.302;2024-02-26T09:32:28;97476.03;;;19.64;46.94
33163;BME280;29282;45.656;11.302;2024-02-26T09:34:56;97477.94;;;19.63;46.58
33163;BME280;29282;45.656;11.302;2024-02-26T09:37:22;97484.69;;;19.66;46.41
33163;BME280;29282;45.656;11.302;2024-02-26T09:39:50;97477.94;;;19.63;46.48
33163;BME280;29282;45.656;11.302;2024-02-26T09:42:18;97471.63;;;19.63;46.07
33163;BME280;29282;45.656;11.302;2024-02-26T09:44:44;97475.22;;;19.63;45.81
33163;BME280;29282;45.656;11.302;2024-02-26T09:47:11;97478.28;;;19.62;45.76
33163;BME280;29282;45.656;11.302;2024-02-26T09:49:38;97477.44;;;19.58;45.54
33163;BME280;29282;45.656;11.302;2024-02-26T09:52:08;97471.94;;;19.58;45.90
33163;BME280;29282;45.656;11.302;2024-02-26T09:54:35;97480.91;;;19.55;45.78
33163;BME280;29282;45.656;11.302;2024-02-26T09:57:03;97480.47;;;19.53;45.31
33163;BME280;29282;45.656;11.302;2024-02-26T09:59:39;97474.91;;;19.49;45.80
33163;BME280;29282;45.656;11.302;2024-02-26T10:02:14;97478.81;;;19.48;45.43
33163;BME280;29282;45.656;11.302;2024-02-26T10:04:40;97478.00;;;19.47;45.52
33163;BME280;29282;45.656;11.302;2024-02-26T10:07:10;97478.81;;;19.48;45.66
33163;BME280;29282;45.656;11.302;2024-02-26T10:09:36;97474.47;;;19.47;45.68
33163;BME280;29282;45.656;11.302;2024-02-26T10:12:06;97483.78;;;19.42;45.84
33163;BME280;29282;45.656;11.302;2024-02-26T10:14:32;97489.78;;;19.48;47.52
33163;BME280;29282;45.656;11.302;2024-02-26T10:16:59;97479.97;;;19.47;48.01
33163;BME280;29282;45.656;11.302;2024-02-26T10:19:27;97474.75;;;19.42;48.70
33163;BME280;29282;45.656;11.302;2024-02-26T10:22:02;97471.94;;;19.38;48.43
33163;BME280;29282;45.656;11.302;2024-02-26T10:24:30;97472.72;;;19.39;48.80
33163;BME280;29282;45.656;11.302;2024-02-26T10:26:56;97472.88;;;19.46;48.90
33163;BME280;29282;45.656;11.302;2024-02-26T10:29:25;97482.88;;;19.54;49.38
33163;BME280;29282;45.656;11.302;2024-02-26T10:31:51;97492.69;;;19.55;49.66
33163;BME280;29282;45.656;11.302;2024-02-26T10:34:17;97489.22;;;19.58;49.98
33163;BME280;29282;45.656;11.302;2024-02-26T10:36:43;97490.56;;;19.64;50.05
33163;BME280;29282;45.656;11.302;2024-02-26T10:39:11;97486.63;;;19.65;50.32
33163;BME280;29282;45.656;11.302;2024-02-26T10:41:37;97484.75;;;19.69;50.70
33163;BME280;29282;45.656;11.302;2024-02-26T10:44:06;97483.16;;;19.68;50.94
33163;BME280;29282;45.656;11.302;2024-02-26T10:46:34;97482.78;;;19.70;50.84
33163;BME280;29282;45.656;11.302;2024-02-26T10:49:00;97480.16;;;19.74;50.99
33163;BME280;29282;45.656;11.302;2024-02-26T10:51:30;97477.41;;;19.74;51.01
33163;BME280;29282;45.656;11.302;2024-02-26T10:53:57;97477.75;;;19.72;51.14
33163;BME280;29282;45.656;11.302;2024-02-26T10:56:28;97479.78;;;19.75;51.46
33163;BME280;29282;45.656;11.302;2024-02-26T10:58:55;97481.00;;;19.78;51.26
33163;BME280;29282;45.656;11.302;2024-02-26T11:01:23;97484.53;;;19.78;51.19
33163;BME280;29282;45.656;11.302;2024-02-26T11:03:51;97483.38;;;19.79;51.21
33163;BME280;29282;45.656;11.302;2024-02-26T11:06:21;97480.28;;;19.81;51.28
33163;BME280;29282;45.656;11.302;2024-02-26T11:08:48;97490.91;;;19.82;51.15
33163;BME280;29282;45.656;11.302;2024-02-26T11:11:15;97471.66;;;19.82;51.20
33163;BME280;29282;45.656;11.302;2024-02-26T11:13:46;97475.56;;;19.81;50.85
33163;BME280;29282;45.656;11.302;2024-02-26T11:16:18;97478.66;;;19.80;51.27
33163;BME280;29282;45.656;11.302;2024-02-26T11:18:46;97470.88;;;19.82;51.40
33163;BME280;29282;45.656;11.302;2024-02-26T11:21:15;97477.09;;;19.79;51.12
33163;BME280;29282;45.656;11.302;2024-02-26T11:23:45;97474.41;;;19.82;51.27
33163;BME280;29282;45.656;11.302;2024-02-26T11:26:12;97479.91;;;19.82;51.04
33163;BME280;29282;45.656;11.302;2024-02-26T11:28:40;97487.34;;;19.82;50.92
33163;BME280;29282;45.656;11.302;2024-02-26T11:31:07;97475.56;;;19.81;50.94
33163;BME280;29282;45.656;11.302;2024-02-26T11:33:33;97469.69;;;19.83;50.90
33163;BME280;29282;45.656;11.302;2024-02-26T11:36:02;97463.34;;;19.79;50.71
33163;BME280;29282;45.656;11.302;2024-02-26T11:38:28;97470.00;;;19.78;50.71
33163;BME280;29282;45.656;11.302;2024-02-26T11:40:54;97471.59;;;19.79;50.64
33163;BME280;29282;45.656;11.302;2024-02-26T11:43:24;97478.66;;;19.80;50.68
33163;BME280;29282;45.656;11.302;2024-02-26T11:46:38;97479.38;;;19.77;50.80
33163;BME280;29282;45.656;11.302;2024-02-26T11:51:55;97462.19;;;19.80;50.43
33163;BME280;29282;45.656;11.302;2024-02-26T11:59:47;97458.38;;;20.07;49.56
33163;BME280;29282;45.656;11.302;2024-02-26T12:02:45;97458.34;;;20.27;48.98
33163;BME280;29282;45.656;11.302;2024-02-26T12:05:18;97454.25;;;20.40;48.70
33163;BME280;29282;45.656;11.302;2024-02-26T12:07:47;97441.47;;;20.51;48.54
33163;BME280;29282;45.656;11.302;2024-02-26T12:13:07;97445.38;;;20.73;48.24
33163;BME280;29282;45.656;11.302;2024-02-26T12:15:37;97446.06;;;20.67;48.38
33163;BME280;29282;45.656;11.302;2024-02-26T12:18:22;97446.41;;;20.65;48.37
33163;BME280;29282;45.656;11.302;2024-02-26T12:21:02;97453.47;;;20.66;48.25
33163;BME280;29282;45.656;11.302;2024-02-26T12:23:28;97438.31;;;20.76;48.03
33163;BME280;29282;45.656;11.302;2024-02-26T12:25:58;97439.13;;;20.76;48.21
33163;BME280;29282;45.656;11.302;2024-02-26T12:28:30;97444.72;;;20.83;48.01
33163;BME280;29282;45.656;11.302;2024-02-26T12:30:56;97443.50;;;20.81;47.85
33163;BME280;29282;45.656;11.302;2024-02-26T12:33:25;97435.69;;;20.83;48.26
33163;BME280;29282;45.656;11.302;2024-02-26T12:35:52;97436.41;;;20.80;48.22
33163;BME280;29282;45.656;11.302;2024-02-26T12:38:17;97445.13;;;20.59;51.87
33163;BME280;29282;45.656;11.302;2024-02-26T12:40:44;97442.63;;;20.50;51.21
33163;BME280;29282;45.656;11.302;2024-02-26T12:43:09;97442.91;;;20.45;52.16
33163;BME280;29282;45.656;11.302;2024-02-26T12:45:43;97442.50;;;20.43;52.61
33163;BME280;29282;45.656;11.302;2024-02-26T12:48:12;97434.25;;;20.43;52.61
33163;BME280;29282;45.656;11.302;2024-02-26T12:50:37;97442.56;;;20.47;52.77
33163;BME280;29282;45.656;11.302;2024-02-26T12:53:03;97446.88;;;20.48;53.16
33163;BME280;29282;45.656;11.302;2024-02-26T12:55:29;97446.50;;;20.49;53.68
33163;BME280;29282;45.656;11.302;2024-02-26T12:57:57;97456.06;;;20.55;53.99
33163;BME280;29282;45.656;11.302;2024-02-26T13:00:29;97462.06;;;20.61;53.57
33163;BME280;29282;45.656;11.302;2024-02-26T13:02:55;97457.91;;;20.71;53.95